Weather at Sasnava Airfield

Public forecast

Using degrees Celsius for public forecast. Weather courtesy of forecast.io.

Closest aviation weather report (METAR) to Sasnava Airfield

Closest report is Kaunas International Airport, 28.3 nm (52.5 km) NE.

2024/05/22 08:20 (retrieved 39 minutes ago)

EYKA 220820Z 07013KT 040V100 CAVOK 21/12 Q1017

Closest aviation forecast (TAF) to Sasnava Airfield

Closest forecast is Kaunas International Airport, 28.3 nm (52.5 km) NE.

2024/05/22 06:09 (retrieved 3 hours ago)

TAF EYKA 220503Z 2206/2306 09010KT 9000 SCT040 TEMPO 2209/2216 09015G25KT BKN035CB PROB40 TEMPO 2212/2217 5000 TSRA